createdAt,value
2022-11-05T00:09:56.787Z,1983.71627
2022-11-05T00:24:58.611Z,1871.50888
2022-11-05T00:40:00.510Z,1807.14817
2022-11-05T00:55:02.381Z,1744.79216
2022-11-05T01:10:04.232Z,1736.87671
2022-11-05T01:25:06.087Z,1888.65448
2022-11-05T01:40:07.916Z,1976.40168
2022-11-05T01:55:09.727Z,2008.996
2022-11-05T02:10:11.645Z,1947.67492
2022-11-05T02:25:13.476Z,1804.7143
2022-11-05T02:40:15.314Z,1679.19849
2022-11-05T02:55:17.196Z,1759.68533
2022-11-05T03:10:19.062Z,1760.84149
2022-11-05T03:25:20.948Z,1899.36265
2022-11-05T03:40:22.791Z,1808.36757
2022-11-05T03:55:24.675Z,1705.92029
2022-11-05T04:10:26.606Z,1666.66716
2022-11-05T04:25:28.452Z,1656.36638
2022-11-05T04:40:30.278Z,1757.37754
2022-11-05T04:55:32.102Z,1714.65181
2022-11-05T05:10:34.139Z,1638.1423
2022-11-05T05:25:36.006Z,1621.29511
2022-11-05T05:40:37.970Z,1714.65181
2022-11-05T05:55:40.010Z,1887.32444
2022-11-05T06:10:42.013Z,1985.18568
2022-11-05T06:25:44.002Z,2022.64201
2022-11-05T06:40:45.950Z,2018.07279
2022-11-05T06:55:47.889Z,1960.49794
2022-11-05T07:10:49.830Z,1942.02948
2022-11-05T07:25:51.757Z,1915.65454
2022-11-05T07:40:53.664Z,1893.99343
2022-11-05T07:55:55.575Z,1973.49093
2022-11-05T08:10:57.581Z,2044.24154
2022-11-05T08:25:59.540Z,2036.47466
2022-11-05T08:41:01.477Z,1989.60703
2022-11-05T08:56:03.421Z,1939.21902
2022-11-05T09:11:05.332Z,1534.93749
2022-11-05T09:26:07.296Z,1534.93749
2022-11-05T09:41:09.227Z,1751.63448
2022-11-05T09:56:11.175Z,1911.55542
2022-11-05T10:11:13.074Z,1949.09141
2022-11-05T10:26:14.989Z,1973.49093
2022-11-05T10:41:16.892Z,2067.90174
2022-11-05T10:56:18.813Z,2130.36616
2022-11-05T11:11:20.783Z,2166.53244
2022-11-05T11:26:22.664Z,2246.43806
2022-11-05T11:41:24.595Z,2304.38572
2022-11-05T11:56:26.535Z,2286.68993
2022-11-05T12:11:28.429Z,2308.35537
2022-11-05T12:26:30.355Z,2342.65785
2022-11-05T12:41:32.362Z,2377.99519
2022-11-05T12:56:34.271Z,2369.58495
2022-11-05T13:11:36.248Z,2380.10708
2022-11-05T13:26:38.152Z,2425.33988
2022-11-05T13:41:40.031Z,2427.53674
2022-11-05T13:56:42.077Z,2429.73759
2022-11-05T14:11:44.031Z,2436.36415
2022-11-05T14:26:45.933Z,2438.58104
2022-11-05T14:41:47.924Z,2418.77307
2022-11-05T14:56:55.920Z,2454.21297
2022-11-05T15:11:58.494Z,1398.7479
2022-11-05T15:27:00.461Z,1556.33034
2022-11-05T15:42:02.409Z,1738.00309
2022-11-05T15:57:04.375Z,1237.30429
2022-11-05T16:12:06.378Z,1512.41587
2022-11-05T16:27:08.290Z,1712.46056
2022-11-05T16:42:10.208Z,1922.52561
2022-11-05T16:57:12.167Z,1991.0852
2022-11-05T17:12:14.092Z,2045.80203
2022-11-05T17:27:16.215Z,1940.62324
2022-11-05T17:42:18.236Z,2095.38752
2022-11-05T17:57:20.186Z,2200.32891
2022-11-05T18:12:22.129Z,2282.79437
2022-11-05T18:27:24.155Z,2318.33961
2022-11-05T18:42:26.109Z,2414.41493
2022-11-05T18:57:28.126Z,2463.23581
2022-11-05T19:12:30.082Z,2500.00051
2022-11-05T19:27:31.955Z,2445.25599
2022-11-05T19:42:33.892Z,2476.89515
2022-11-05T19:57:35.801Z,2567.05033
2022-11-05T20:12:37.745Z,2438.58104
2022-11-05T20:27:39.753Z,2386.46534
2022-11-05T20:42:41.679Z,2357.08054
2022-11-05T20:57:43.840Z,2316.33586
2022-11-05T21:12:45.729Z,2252.10135
2022-11-05T21:27:47.709Z,2338.56944
2022-11-05T21:42:49.613Z,2420.95805
2022-11-05T21:57:51.588Z,2429.73759
2022-11-05T22:12:53.535Z,2449.72629
2022-11-05T22:27:55.620Z,2412.24174
2022-11-05T22:42:57.578Z,2401.4342
2022-11-05T22:57:59.490Z,2336.53059
2022-11-05T23:13:01.388Z,2308.35537
2022-11-05T23:28:03.392Z,2286.68993
2022-11-05T23:43:05.284Z,2267.34399
2022-11-05T23:58:07.269Z,2216.70853
